Eyers Grove, Pennsylvania
Current Conditions -  °F | °C
As of 7:54 PM on Wednesday 22 Oct 2014 (Local Time) from KIPT Reporting Station
Overcast Overcast  
Wind Chill: 10°   Ceiling: 2100
Heat Index: 10°   Visibility: 10mi
Dew Point:   Wind: 13mph
Humidity: 74%   Direction: 310°NW
Pressure: 30.03"   Gusts: NA
Location:  41.1401°N, 76.5245°W
Report Text: KIPT 222354Z 31011KT 10SM OVC021 10/06 A3003 RMK AO2 RAB40E50 SLP169 P0000 60000 T01000056 10122 20100 58003
Loading
Personal Weather Stations






























Interactive Weather Map
Tropical Storm Tracking
New forecast layout! Learn more

10-Day Weather Forecast

Advertisements
Track Severe Weather on mobile